sensor_id;sensor_type;location;lat;lon;timestamp;P1;durP1;ratioP1;P2;durP2;ratioP2
16173;SDS011;14031;50.158;8.626;2023-02-13T00:00:13;7.00;;;6.40;;
16173;SDS011;14031;50.158;8.626;2023-02-13T00:02:42;7.17;;;6.57;;
16173;SDS011;14031;50.158;8.626;2023-02-13T00:05:10;6.77;;;6.17;;
16173;SDS011;14031;50.158;8.626;2023-02-13T00:07:38;6.50;;;6.00;;
16173;SDS011;14031;50.158;8.626;2023-02-13T00:10:05;6.93;;;6.23;;
16173;SDS011;14031;50.158;8.626;2023-02-13T00:12:33;7.10;;;6.50;;
16173;SDS011;14031;50.158;8.626;2023-02-13T00:14:59;6.90;;;6.30;;
16173;SDS011;14031;50.158;8.626;2023-02-13T00:17:26;7.03;;;6.47;;
16173;SDS011;14031;50.158;8.626;2023-02-13T00:19:53;6.30;;;5.80;;
16173;SDS011;14031;50.158;8.626;2023-02-13T00:22:20;6.23;;;5.67;;
16173;SDS011;14031;50.158;8.626;2023-02-13T00:24:49;6.53;;;6.03;;
16173;SDS011;14031;50.158;8.626;2023-02-13T00:27:16;5.97;;;5.57;;
16173;SDS011;14031;50.158;8.626;2023-02-13T00:29:43;6.43;;;5.83;;
16173;SDS011;14031;50.158;8.626;2023-02-13T00:32:10;6.10;;;5.60;;
16173;SDS011;14031;50.158;8.626;2023-02-13T00:34:36;6.60;;;6.00;;
16173;SDS011;14031;50.158;8.626;2023-02-13T00:37:03;6.33;;;5.83;;
16173;SDS011;14031;50.158;8.626;2023-02-13T00:39:30;6.20;;;5.70;;
16173;SDS011;14031;50.158;8.626;2023-02-13T00:41:58;6.53;;;6.03;;
16173;SDS011;14031;50.158;8.626;2023-02-13T00:44:25;6.53;;;5.93;;
16173;SDS011;14031;50.158;8.626;2023-02-13T00:46:51;6.00;;;5.50;;
16173;SDS011;14031;50.158;8.626;2023-02-13T00:49:18;5.90;;;5.50;;
16173;SDS011;14031;50.158;8.626;2023-02-13T00:51:45;6.33;;;5.83;;
16173;SDS011;14031;50.158;8.626;2023-02-13T00:54:12;6.73;;;6.10;;
16173;SDS011;14031;50.158;8.626;2023-02-13T00:56:38;6.00;;;5.50;;
16173;SDS011;14031;50.158;8.626;2023-02-13T00:59:07;6.50;;;6.00;;
16173;SDS011;14031;50.158;8.626;2023-02-13T01:01:33;6.53;;;6.03;;
16173;SDS011;14031;50.158;8.626;2023-02-13T01:04:00;6.73;;;6.13;;
16173;SDS011;14031;50.158;8.626;2023-02-13T01:06:27;6.07;;;5.57;;
16173;SDS011;14031;50.158;8.626;2023-02-13T01:08:54;7.13;;;6.43;;
16173;SDS011;14031;50.158;8.626;2023-02-13T01:11:21;5.93;;;5.43;;
16173;SDS011;14031;50.158;8.626;2023-02-13T01:13:48;6.87;;;6.27;;
16173;SDS011;14031;50.158;8.626;2023-02-13T01:16:16;6.80;;;6.20;;
16173;SDS011;14031;50.158;8.626;2023-02-13T01:18:42;6.67;;;6.07;;
16173;SDS011;14031;50.158;8.626;2023-02-13T01:21:13;6.97;;;6.27;;
16173;SDS011;14031;50.158;8.626;2023-02-13T01:23:42;6.77;;;6.07;;
16173;SDS011;14031;50.158;8.626;2023-02-13T01:26:10;6.93;;;6.23;;
16173;SDS011;14031;50.158;8.626;2023-02-13T01:28:42;7.43;;;6.83;;
16173;SDS011;14031;50.158;8.626;2023-02-13T01:31:08;6.40;;;5.80;;
16173;SDS011;14031;50.158;8.626;2023-02-13T01:33:37;7.40;;;6.70;;
16173;SDS011;14031;50.158;8.626;2023-02-13T01:36:07;6.47;;;5.97;;
16173;SDS011;14031;50.158;8.626;2023-02-13T01:38:38;7.53;;;6.83;;
16173;SDS011;14031;50.158;8.626;2023-02-13T01:41:05;7.17;;;6.57;;
16173;SDS011;14031;50.158;8.626;2023-02-13T01:43:47;6.77;;;6.17;;
16173;SDS011;14031;50.158;8.626;2023-02-13T01:46:17;6.93;;;6.23;;
16173;SDS011;14031;50.158;8.626;2023-02-13T01:48:48;6.50;;;6.00;;
16173;SDS011;14031;50.158;8.626;2023-02-13T01:51:19;7.43;;;6.73;;
16173;SDS011;14031;50.158;8.626;2023-02-13T01:53:50;6.67;;;6.10;;
16173;SDS011;14031;50.158;8.626;2023-02-13T01:56:21;7.23;;;6.63;;
16173;SDS011;14031;50.158;8.626;2023-02-13T01:58:52;6.90;;;6.30;;
16173;SDS011;14031;50.158;8.626;2023-02-13T02:01:22;6.67;;;6.17;;
16173;SDS011;14031;50.158;8.626;2023-02-13T02:03:52;7.07;;;6.47;;
16173;SDS011;14031;50.158;8.626;2023-02-13T02:06:24;7.27;;;6.57;;
16173;SDS011;14031;50.158;8.626;2023-02-13T02:08:53;7.57;;;6.87;;
16173;SDS011;14031;50.158;8.626;2023-02-13T02:11:26;6.87;;;6.37;;
16173;SDS011;14031;50.158;8.626;2023-02-13T02:13:59;7.87;;;7.07;;
16173;SDS011;14031;50.158;8.626;2023-02-13T02:16:27;7.63;;;6.70;;
16173;SDS011;14031;50.158;8.626;2023-02-13T02:18:57;7.17;;;6.57;;
16173;SDS011;14031;50.158;8.626;2023-02-13T02:21:36;8.10;;;7.27;;
16173;SDS011;14031;50.158;8.626;2023-02-13T02:24:20;7.37;;;6.70;;
16173;SDS011;14031;50.158;8.626;2023-02-13T02:27:15;7.73;;;6.87;;
16173;SDS011;14031;50.158;8.626;2023-02-13T02:30:07;8.07;;;7.10;;
16173;SDS011;14031;50.158;8.626;2023-02-13T02:33:01;7.90;;;7.13;;
16173;SDS011;14031;50.158;8.626;2023-02-13T02:35:35;7.70;;;6.83;;
16173;SDS011;14031;50.158;8.626;2023-02-13T02:38:13;7.90;;;7.10;;
16173;SDS011;14031;50.158;8.626;2023-02-13T02:40:54;7.97;;;7.17;;
16173;SDS011;14031;50.158;8.626;2023-02-13T02:43:29;8.30;;;7.47;;
16173;SDS011;14031;50.158;8.626;2023-02-13T02:46:10;7.87;;;7.17;;
16173;SDS011;14031;50.158;8.626;2023-02-13T02:48:44;8.17;;;7.37;;
16173;SDS011;14031;50.158;8.626;2023-02-13T02:51:37;8.17;;;7.37;;
16173;SDS011;14031;50.158;8.626;2023-02-13T02:54:06;10.83;;;7.37;;
16173;SDS011;14031;50.158;8.626;2023-02-13T02:56:51;8.80;;;7.50;;
16173;SDS011;14031;50.158;8.626;2023-02-13T02:59:22;8.77;;;7.20;;
16173;SDS011;14031;50.158;8.626;2023-02-13T03:02:10;8.83;;;7.90;;
16173;SDS011;14031;50.158;8.626;2023-02-13T03:04:57;7.97;;;7.17;;
16173;SDS011;14031;50.158;8.626;2023-02-13T03:07:43;7.93;;;7.13;;
16173;SDS011;14031;50.158;8.626;2023-02-13T03:10:11;9.00;;;7.67;;
16173;SDS011;14031;50.158;8.626;2023-02-13T03:13:03;8.17;;;7.37;;
16173;SDS011;14031;50.158;8.626;2023-02-13T03:15:48;10.10;;;7.47;;
16173;SDS011;14031;50.158;8.626;2023-02-13T03:18:35;8.40;;;7.60;;
16173;SDS011;14031;50.158;8.626;2023-02-13T03:21:25;11.20;;;8.00;;
16173;SDS011;14031;50.158;8.626;2023-02-13T03:24:19;9.60;;;7.87;;
16173;SDS011;14031;50.158;8.626;2023-02-13T03:26:54;11.33;;;8.07;;
16173;SDS011;14031;50.158;8.626;2023-02-13T03:29:27;10.10;;;8.70;;
16173;SDS011;14031;50.158;8.626;2023-02-13T03:32:22;8.20;;;7.40;;
16173;SDS011;14031;50.158;8.626;2023-02-13T03:34:59;9.03;;;7.43;;
16173;SDS011;14031;50.158;8.626;2023-02-13T03:37:59;8.47;;;7.47;;
16173;SDS011;14031;50.158;8.626;2023-02-13T03:40:33;8.63;;;7.57;;
16173;SDS011;14031;50.158;8.626;2023-02-13T03:43:25;9.13;;;8.07;;
16173;SDS011;14031;50.158;8.626;2023-02-13T03:45:54;10.07;;;7.90;;
16173;SDS011;14031;50.158;8.626;2023-02-13T03:48:25;11.07;;;8.37;;
16173;SDS011;14031;50.158;8.626;2023-02-13T03:51:14;10.20;;;7.73;;
16173;SDS011;14031;50.158;8.626;2023-02-13T03:53:48;8.67;;;7.77;;
16173;SDS011;14031;50.158;8.626;2023-02-13T03:56:18;8.80;;;7.90;;
16173;SDS011;14031;50.158;8.626;2023-02-13T03:59:04;12.40;;;7.80;;
16173;SDS011;14031;50.158;8.626;2023-02-13T04:01:39;10.07;;;8.40;;
16173;SDS011;14031;50.158;8.626;2023-02-13T04:04:09;9.20;;;8.27;;
16173;SDS011;14031;50.158;8.626;2023-02-13T04:06:44;9.90;;;8.17;;
16173;SDS011;14031;50.158;8.626;2023-02-13T04:09:15;9.07;;;7.87;;
16173;SDS011;14031;50.158;8.626;2023-02-13T04:11:44;8.53;;;7.63;;
16173;SDS011;14031;50.158;8.626;2023-02-13T04:14:19;10.40;;;8.50;;
16173;SDS011;14031;50.158;8.626;2023-02-13T04:16:50;10.40;;;8.27;;
16173;SDS011;14031;50.158;8.626;2023-02-13T04:19:19;9.20;;;8.13;;
16173;SDS011;14031;50.158;8.626;2023-02-13T04:21:48;9.17;;;8.03;;
16173;SDS011;14031;50.158;8.626;2023-02-13T04:24:22;11.13;;;7.83;;
16173;SDS011;14031;50.158;8.626;2023-02-13T04:26:48;11.40;;;8.80;;
16173;SDS011;14031;50.158;8.626;2023-02-13T04:29:15;11.17;;;8.83;;
16173;SDS011;14031;50.158;8.626;2023-02-13T04:31:42;11.93;;;8.60;;
16173;SDS011;14031;50.158;8.626;2023-02-13T04:34:09;11.40;;;8.60;;
16173;SDS011;14031;50.158;8.626;2023-02-13T04:36:35;9.33;;;8.40;;
16173;SDS011;14031;50.158;8.626;2023-02-13T04:39:02;14.20;;;8.53;;
16173;SDS011;14031;50.158;8.626;2023-02-13T04:41:30;11.27;;;8.73;;
16173;SDS011;14031;50.158;8.626;2023-02-13T04:43:57;13.87;;;9.27;;
16173;SDS011;14031;50.158;8.626;2023-02-13T04:46:24;11.17;;;9.23;;
16173;SDS011;14031;50.158;8.626;2023-02-13T04:48:51;11.97;;;8.73;;
16173;SDS011;14031;50.158;8.626;2023-02-13T04:51:17;12.33;;;8.63;;
16173;SDS011;14031;50.158;8.626;2023-02-13T04:53:46;10.57;;;8.73;;
16173;SDS011;14031;50.158;8.626;2023-02-13T04:56:16;11.43;;;8.90;;
16173;SDS011;14031;50.158;8.626;2023-02-13T04:58:45;11.33;;;9.27;;
16173;SDS011;14031;50.158;8.626;2023-02-13T05:01:12;11.63;;;9.07;;
16173;SDS011;14031;50.158;8.626;2023-02-13T05:03:40;12.83;;;9.30;;
16173;SDS011;14031;50.158;8.626;2023-02-13T05:06:08;12.03;;;9.03;;
16173;SDS011;14031;50.158;8.626;2023-02-13T05:08:35;13.03;;;9.23;;
16173;SDS011;14031;50.158;8.626;2023-02-13T05:11:02;11.63;;;8.77;;
16173;SDS011;14031;50.158;8.626;2023-02-13T05:13:29;12.23;;;9.17;;
16173;SDS011;14031;50.158;8.626;2023-02-13T05:15:57;11.53;;;8.87;;
16173;SDS011;14031;50.158;8.626;2023-02-13T05:18:24;11.80;;;9.13;;
16173;SDS011;14031;50.158;8.626;2023-02-13T05:20:51;10.10;;;8.20;;
16173;SDS011;14031;50.158;8.626;2023-02-13T05:23:31;12.60;;;9.30;;
16173;SDS011;14031;50.158;8.626;2023-02-13T05:25:58;10.40;;;8.67;;
16173;SDS011;14031;50.158;8.626;2023-02-13T05:28:25;9.93;;;8.63;;
16173;SDS011;14031;50.158;8.626;2023-02-13T05:31:10;11.70;;;9.20;;
16173;SDS011;14031;50.158;8.626;2023-02-13T05:33:37;10.90;;;8.80;;
16173;SDS011;14031;50.158;8.626;2023-02-13T05:36:05;11.10;;;9.00;;
16173;SDS011;14031;50.158;8.626;2023-02-13T05:38:32;11.70;;;9.20;;
16173;SDS011;14031;50.158;8.626;2023-02-13T05:40:59;10.37;;;9.27;;
16173;SDS011;14031;50.158;8.626;2023-02-13T05:43:32;12.23;;;9.53;;
16173;SDS011;14031;50.158;8.626;2023-02-13T05:46:00;16.07;;;9.47;;
16173;SDS011;14031;50.158;8.626;2023-02-13T05:48:30;14.33;;;9.87;;
16173;SDS011;14031;50.158;8.626;2023-02-13T05:50:57;11.63;;;9.17;;
16173;SDS011;14031;50.158;8.626;2023-02-13T05:53:24;12.80;;;9.23;;
16173;SDS011;14031;50.158;8.626;2023-02-13T05:55:51;13.10;;;9.73;;
16173;SDS011;14031;50.158;8.626;2023-02-13T05:58:18;12.73;;;9.27;;
16173;SDS011;14031;50.158;8.626;2023-02-13T06:00:45;11.53;;;8.33;;
16173;SDS011;14031;50.158;8.626;2023-02-13T06:03:12;11.60;;;8.87;;
16173;SDS011;14031;50.158;8.626;2023-02-13T06:05:40;10.83;;;8.60;;
16173;SDS011;14031;50.158;8.626;2023-02-13T06:08:07;11.93;;;8.67;;
16173;SDS011;14031;50.158;8.626;2023-02-13T06:10:34;10.33;;;8.43;;
16173;SDS011;14031;50.158;8.626;2023-02-13T06:13:00;12.07;;;8.70;;
16173;SDS011;14031;50.158;8.626;2023-02-13T06:15:27;12.20;;;8.63;;
16173;SDS011;14031;50.158;8.626;2023-02-13T06:17:54;10.47;;;8.80;;
16173;SDS011;14031;50.158;8.626;2023-02-13T06:20:21;11.03;;;9.40;;
16173;SDS011;14031;50.158;8.626;2023-02-13T06:22:50;10.83;;;8.43;;
16173;SDS011;14031;50.158;8.626;2023-02-13T06:25:17;9.47;;;8.23;;
16173;SDS011;14031;50.158;8.626;2023-02-13T06:27:44;12.97;;;9.30;;
16173;SDS011;14031;50.158;8.626;2023-02-13T06:30:11;11.87;;;8.83;;
16173;SDS011;14031;50.158;8.626;2023-02-13T06:32:39;21.27;;;15.00;;
16173;SDS011;14031;50.158;8.626;2023-02-13T06:35:06;21.63;;;14.13;;
16173;SDS011;14031;50.158;8.626;2023-02-13T06:37:33;21.40;;;13.07;;
16173;SDS011;14031;50.158;8.626;2023-02-13T06:40:02;18.30;;;10.63;;
16173;SDS011;14031;50.158;8.626;2023-02-13T06:42:29;14.67;;;8.40;;
16173;SDS011;14031;50.158;8.626;2023-02-13T06:44:56;15.47;;;8.83;;
16173;SDS011;14031;50.158;8.626;2023-02-13T06:47:22;18.53;;;10.37;;
16173;SDS011;14031;50.158;8.626;2023-02-13T06:49:49;18.63;;;10.57;;
16173;SDS011;14031;50.158;8.626;2023-02-13T06:52:16;54.07;;;21.77;;
16173;SDS011;14031;50.158;8.626;2023-02-13T06:54:43;15.97;;;11.40;;
16173;SDS011;14031;50.158;8.626;2023-02-13T06:57:13;17.87;;;10.83;;
16173;SDS011;14031;50.158;8.626;2023-02-13T06:59:46;13.63;;;9.67;;
16173;SDS011;14031;50.158;8.626;2023-02-13T07:02:12;11.20;;;8.90;;
16173;SDS011;14031;50.158;8.626;2023-02-13T07:04:39;11.80;;;8.73;;
16173;SDS011;14031;50.158;8.626;2023-02-13T07:07:06;11.07;;;8.67;;
16173;SDS011;14031;50.158;8.626;2023-02-13T07:09:33;12.23;;;9.00;;
16173;SDS011;14031;50.158;8.626;2023-02-13T07:12:01;11.67;;;8.77;;
16173;SDS011;14031;50.158;8.626;2023-02-13T07:14:30;11.80;;;9.50;;
16173;SDS011;14031;50.158;8.626;2023-02-13T07:16:56;12.60;;;8.20;;
16173;SDS011;14031;50.158;8.626;2023-02-13T07:19:23;13.40;;;9.07;;
16173;SDS011;14031;50.158;8.626;2023-02-13T07:21:50;14.43;;;9.30;;
16173;SDS011;14031;50.158;8.626;2023-02-13T07:24:17;13.07;;;8.90;;
16173;SDS011;14031;50.158;8.626;2023-02-13T07:26:43;11.47;;;8.93;;
16173;SDS011;14031;50.158;8.626;2023-02-13T07:29:10;14.03;;;10.03;;
16173;SDS011;14031;50.158;8.626;2023-02-13T07:31:38;13.10;;;8.87;;
16173;SDS011;14031;50.158;8.626;2023-02-13T07:34:05;15.43;;;9.10;;
16173;SDS011;14031;50.158;8.626;2023-02-13T07:36:33;13.47;;;8.23;;
16173;SDS011;14031;50.158;8.626;2023-02-13T07:38:59;13.17;;;9.20;;
16173;SDS011;14031;50.158;8.626;2023-02-13T07:41:26;14.80;;;9.60;;
16173;SDS011;14031;50.158;8.626;2023-02-13T07:43:53;15.90;;;9.47;;
16173;SDS011;14031;50.158;8.626;2023-02-13T07:46:20;12.27;;;9.30;;
16173;SDS011;14031;50.158;8.626;2023-02-13T07:48:48;14.20;;;9.97;;
16173;SDS011;14031;50.158;8.626;2023-02-13T07:51:17;18.53;;;9.77;;
16173;SDS011;14031;50.158;8.626;2023-02-13T07:53:44;15.50;;;10.43;;
16173;SDS011;14031;50.158;8.626;2023-02-13T07:56:11;15.70;;;9.93;;
16173;SDS011;14031;50.158;8.626;2023-02-13T07:58:38;17.00;;;10.57;;
16173;SDS011;14031;50.158;8.626;2023-02-13T08:01:05;17.50;;;10.27;;
16173;SDS011;14031;50.158;8.626;2023-02-13T08:03:33;15.30;;;10.63;;
16173;SDS011;14031;50.158;8.626;2023-02-13T08:06:01;15.07;;;10.87;;
16173;SDS011;14031;50.158;8.626;2023-02-13T08:08:28;15.30;;;10.90;;
16173;SDS011;14031;50.158;8.626;2023-02-13T08:10:55;16.80;;;11.33;;
16173;SDS011;14031;50.158;8.626;2023-02-13T08:13:40;16.60;;;11.37;;
16173;SDS011;14031;50.158;8.626;2023-02-13T08:16:07;17.20;;;10.53;;
16173;SDS011;14031;50.158;8.626;2023-02-13T08:18:34;14.23;;;10.17;;
16173;SDS011;14031;50.158;8.626;2023-02-13T08:21:02;15.23;;;10.87;;
16173;SDS011;14031;50.158;8.626;2023-02-13T08:23:29;18.27;;;11.07;;
16173;SDS011;14031;50.158;8.626;2023-02-13T08:25:58;16.23;;;10.70;;
16173;SDS011;14031;50.158;8.626;2023-02-13T08:28:26;19.40;;;11.20;;
16173;SDS011;14031;50.158;8.626;2023-02-13T08:30:53;15.17;;;10.33;;
16173;SDS011;14031;50.158;8.626;2023-02-13T08:33:20;16.00;;;11.63;;
16173;SDS011;14031;50.158;8.626;2023-02-13T08:35:47;19.17;;;12.60;;
16173;SDS011;14031;50.158;8.626;2023-02-13T08:38:15;23.70;;;12.80;;
16173;SDS011;14031;50.158;8.626;2023-02-13T08:40:41;21.73;;;12.47;;
16173;SDS011;14031;50.158;8.626;2023-02-13T08:43:08;21.07;;;14.20;;
16173;SDS011;14031;50.158;8.626;2023-02-13T08:45:35;23.93;;;14.37;;
16173;SDS011;14031;50.158;8.626;2023-02-13T08:48:02;21.37;;;12.87;;
16173;SDS011;14031;50.158;8.626;2023-02-13T08:50:29;19.00;;;12.67;;
16173;SDS011;14031;50.158;8.626;2023-02-13T08:52:56;18.90;;;12.87;;
16173;SDS011;14031;50.158;8.626;2023-02-13T08:55:26;18.77;;;13.03;;
16173;SDS011;14031;50.158;8.626;2023-02-13T08:57:53;21.53;;;14.03;;
16173;SDS011;14031;50.158;8.626;2023-02-13T09:00:20;21.70;;;13.77;;
16173;SDS011;14031;50.158;8.626;2023-02-13T09:02:47;21.73;;;13.43;;
16173;SDS011;14031;50.158;8.626;2023-02-13T09:05:14;21.50;;;13.70;;
16173;SDS011;14031;50.158;8.626;2023-02-13T09:07:41;21.73;;;13.50;;
16173;SDS011;14031;50.158;8.626;2023-02-13T09:10:08;19.07;;;12.57;;
16173;SDS011;14031;50.158;8.626;2023-02-13T09:12:36;20.20;;;13.10;;
16173;SDS011;14031;50.158;8.626;2023-02-13T09:15:03;18.93;;;13.20;;
16173;SDS011;14031;50.158;8.626;2023-02-13T09:17:30;22.33;;;13.43;;
16173;SDS011;14031;50.158;8.626;2023-02-13T09:19:57;18.87;;;12.43;;
16173;SDS011;14031;50.158;8.626;2023-02-13T09:22:24;20.80;;;12.93;;
16173;SDS011;14031;50.158;8.626;2023-02-13T09:24:51;19.63;;;12.77;;
16173;SDS011;14031;50.158;8.626;2023-02-13T09:27:17;17.13;;;11.87;;
16173;SDS011;14031;50.158;8.626;2023-02-13T09:29:45;16.80;;;12.47;;
16173;SDS011;14031;50.158;8.626;2023-02-13T09:32:13;19.00;;;12.27;;
16173;SDS011;14031;50.158;8.626;2023-02-13T09:34:40;20.10;;;12.13;;
16173;SDS011;14031;50.158;8.626;2023-02-13T09:37:06;17.87;;;11.90;;
16173;SDS011;14031;50.158;8.626;2023-02-13T09:39:33;16.40;;;11.67;;
16173;SDS011;14031;50.158;8.626;2023-02-13T09:42:00;14.57;;;10.93;;
16173;SDS011;14031;50.158;8.626;2023-02-13T09:44:29;16.30;;;11.77;;
16173;SDS011;14031;50.158;8.626;2023-02-13T09:47:05;17.90;;;12.37;;
16173;SDS011;14031;50.158;8.626;2023-02-13T09:49:38;18.73;;;11.80;;
16173;SDS011;14031;50.158;8.626;2023-02-13T09:52:09;17.50;;;11.70;;
16173;SDS011;14031;50.158;8.626;2023-02-13T09:54:36;18.90;;;12.23;;
16173;SDS011;14031;50.158;8.626;2023-02-13T09:57:04;18.73;;;11.53;;
16173;SDS011;14031;50.158;8.626;2023-02-13T09:59:38;14.67;;;10.77;;
16173;SDS011;14031;50.158;8.626;2023-02-13T10:02:28;17.27;;;11.23;;
16173;SDS011;14031;50.158;8.626;2023-02-13T10:05:09;15.67;;;10.63;;
16173;SDS011;14031;50.158;8.626;2023-02-13T10:07:47;21.87;;;11.13;;
16173;SDS011;14031;50.158;8.626;2023-02-13T10:10:23;15.90;;;10.67;;
16173;SDS011;14031;50.158;8.626;2023-02-13T10:12:56;14.57;;;10.20;;
16173;SDS011;14031;50.158;8.626;2023-02-13T10:15:37;14.63;;;10.27;;
16173;SDS011;14031;50.158;8.626;2023-02-13T10:18:14;21.07;;;10.93;;
16173;SDS011;14031;50.158;8.626;2023-02-13T10:20:44;11.70;;;10.07;;
16173;SDS011;14031;50.158;8.626;2023-02-13T10:23:16;11.97;;;9.80;;
16173;SDS011;14031;50.158;8.626;2023-02-13T10:25:48;12.83;;;10.00;;
16173;SDS011;14031;50.158;8.626;2023-02-13T10:28:20;13.03;;;9.70;;
16173;SDS011;14031;50.158;8.626;2023-02-13T10:30:57;12.70;;;10.13;;
16173;SDS011;14031;50.158;8.626;2023-02-13T10:33:31;12.70;;;10.30;;
16173;SDS011;14031;50.158;8.626;2023-02-13T10:36:04;14.67;;;10.10;;
16173;SDS011;14031;50.158;8.626;2023-02-13T10:38:40;14.00;;;9.83;;
16173;SDS011;14031;50.158;8.626;2023-02-13T10:46:55;14.87;;;9.27;;
16173;SDS011;14031;50.158;8.626;2023-02-13T10:49:42;20.63;;;11.53;;
16173;SDS011;14031;50.158;8.626;2023-02-13T10:52:21;13.03;;;9.23;;
16173;SDS011;14031;50.158;8.626;2023-02-13T10:55:04;12.30;;;9.57;;
16173;SDS011;14031;50.158;8.626;2023-02-13T10:57:45;14.90;;;10.00;;
16173;SDS011;14031;50.158;8.626;2023-02-13T11:00:28;12.20;;;10.23;;
16173;SDS011;14031;50.158;8.626;2023-02-13T11:03:00;13.23;;;9.97;;
16173;SDS011;14031;50.158;8.626;2023-02-13T11:05:31;12.80;;;9.63;;
16173;SDS011;14031;50.158;8.626;2023-02-13T11:08:01;11.20;;;8.93;;
16173;SDS011;14031;50.158;8.626;2023-02-13T11:10:29;15.97;;;10.30;;
16173;SDS011;14031;50.158;8.626;2023-02-13T11:12:55;13.67;;;9.80;;
16173;SDS011;14031;50.158;8.626;2023-02-13T11:15:39;13.10;;;9.37;;
16173;SDS011;14031;50.158;8.626;2023-02-13T11:18:10;14.13;;;9.77;;
16173;SDS011;14031;50.158;8.626;2023-02-13T11:20:41;11.40;;;9.40;;
16173;SDS011;14031;50.158;8.626;2023-02-13T11:26:02;13.30;;;9.33;;
16173;SDS011;14031;50.158;8.626;2023-02-13T11:28:33;11.63;;;9.87;;
16173;SDS011;14031;50.158;8.626;2023-02-13T11:31:09;10.33;;;9.23;;
16173;SDS011;14031;50.158;8.626;2023-02-13T11:33:39;13.73;;;9.40;;
16173;SDS011;14031;50.158;8.626;2023-02-13T11:36:09;11.27;;;8.67;;
16173;SDS011;14031;50.158;8.626;2023-02-13T11:38:40;12.70;;;9.30;;
16173;SDS011;14031;50.158;8.626;2023-02-13T11:41:07;10.67;;;9.03;;
16173;SDS011;14031;50.158;8.626;2023-02-13T11:43:36;8.10;;;7.40;;
16173;SDS011;14031;50.158;8.626;2023-02-13T11:46:14;9.03;;;8.10;;
16173;SDS011;14031;50.158;8.626;2023-02-13T11:48:46;9.20;;;8.20;;
16173;SDS011;14031;50.158;8.626;2023-02-13T11:51:36;9.67;;;8.30;;
16173;SDS011;14031;50.158;8.626;2023-02-13T11:54:05;8.83;;;7.93;;
16173;SDS011;14031;50.158;8.626;2023-02-13T11:56:48;8.67;;;7.93;;
16173;SDS011;14031;50.158;8.626;2023-02-13T11:59:16;7.70;;;7.00;;
16173;SDS011;14031;50.158;8.626;2023-02-13T12:01:43;7.70;;;7.07;;
16173;SDS011;14031;50.158;8.626;2023-02-13T12:04:13;7.67;;;6.97;;
16173;SDS011;14031;50.158;8.626;2023-02-13T12:06:57;7.87;;;7.07;;
16173;SDS011;14031;50.158;8.626;2023-02-13T12:09:26;8.17;;;7.23;;
16173;SDS011;14031;50.158;8.626;2023-02-13T12:11:54;8.40;;;7.53;;
16173;SDS011;14031;50.158;8.626;2023-02-13T12:14:24;8.37;;;7.57;;
16173;SDS011;14031;50.158;8.626;2023-02-13T12:16:56;7.87;;;7.17;;
16173;SDS011;14031;50.158;8.626;2023-02-13T12:19:27;7.57;;;6.97;;
16173;SDS011;14031;50.158;8.626;2023-02-13T12:22:06;9.87;;;6.73;;
16173;SDS011;14031;50.158;8.626;2023-02-13T12:24:58;8.07;;;7.33;;
16173;SDS011;14031;50.158;8.626;2023-02-13T12:27:51;7.43;;;6.73;;
16173;SDS011;14031;50.158;8.626;2023-02-13T12:30:36;7.57;;;6.87;;
16173;SDS011;14031;50.158;8.626;2023-02-13T12:33:22;6.77;;;6.07;;
16173;SDS011;14031;50.158;8.626;2023-02-13T12:36:00;8.20;;;7.17;;
16173;SDS011;14031;50.158;8.626;2023-02-13T12:38:40;7.30;;;6.43;;
16173;SDS011;14031;50.158;8.626;2023-02-13T12:41:15;6.53;;;6.03;;
16173;SDS011;14031;50.158;8.626;2023-02-13T12:43:58;6.27;;;5.73;;
16173;SDS011;14031;50.158;8.626;2023-02-13T12:46:51;12.93;;;6.33;;
16173;SDS011;14031;50.158;8.626;2023-02-13T12:49:33;7.47;;;6.60;;
16173;SDS011;14031;50.158;8.626;2023-02-13T12:52:14;6.60;;;6.10;;
16173;SDS011;14031;50.158;8.626;2023-02-13T12:54:57;6.97;;;6.37;;
16173;SDS011;14031;50.158;8.626;2023-02-13T12:57:35;6.90;;;6.20;;
16173;SDS011;14031;50.158;8.626;2023-02-13T13:00:22;7.07;;;6.43;;
16173;SDS011;14031;50.158;8.626;2023-02-13T13:03:07;6.87;;;6.27;;
16173;SDS011;14031;50.158;8.626;2023-02-13T13:05:51;6.57;;;5.90;;
16173;SDS011;14031;50.158;8.626;2023-02-13T13:08:33;8.20;;;6.30;;
16173;SDS011;14031;50.158;8.626;2023-02-13T13:14:28;7.43;;;6.73;;
16173;SDS011;14031;50.158;8.626;2023-02-13T13:17:02;6.87;;;6.20;;
16173;SDS011;14031;50.158;8.626;2023-02-13T13:19:38;7.03;;;6.03;;
16173;SDS011;14031;50.158;8.626;2023-02-13T13:22:14;5.50;;;5.10;;
16173;SDS011;14031;50.158;8.626;2023-02-13T13:24:48;6.73;;;6.23;;
16173;SDS011;14031;50.158;8.626;2023-02-13T13:27:23;5.70;;;5.27;;
16173;SDS011;14031;50.158;8.626;2023-02-13T13:29:53;5.97;;;5.47;;
16173;SDS011;14031;50.158;8.626;2023-02-13T13:32:23;6.57;;;4.33;;
16173;SDS011;14031;50.158;8.626;2023-02-13T13:34:52;4.60;;;4.30;;
16173;SDS011;14031;50.158;8.626;2023-02-13T13:37:22;6.00;;;5.57;;
16173;SDS011;14031;50.158;8.626;2023-02-13T13:39:57;5.63;;;4.90;;
16173;SDS011;14031;50.158;8.626;2023-02-13T13:42:32;4.27;;;3.87;;
16173;SDS011;14031;50.158;8.626;2023-02-13T13:45:07;4.47;;;3.80;;
16173;SDS011;14031;50.158;8.626;2023-02-13T13:47:54;4.20;;;3.90;;
16173;SDS011;14031;50.158;8.626;2023-02-13T13:50:27;4.00;;;3.77;;
16173;SDS011;14031;50.158;8.626;2023-02-13T13:53:10;4.00;;;3.70;;
16173;SDS011;14031;50.158;8.626;2023-02-13T13:58:33;4.73;;;4.43;;
16173;SDS011;14031;50.158;8.626;2023-02-13T14:01:17;4.20;;;3.80;;
16173;SDS011;14031;50.158;8.626;2023-02-13T14:03:47;4.07;;;3.40;;
16173;SDS011;14031;50.158;8.626;2023-02-13T14:06:15;4.40;;;4.00;;
16173;SDS011;14031;50.158;8.626;2023-02-13T14:11:52;2.63;;;2.50;;
16173;SDS011;14031;50.158;8.626;2023-02-13T14:20:22;4.60;;;4.30;;
16173;SDS011;14031;50.158;8.626;2023-02-13T14:23:06;3.10;;;2.90;;
16173;SDS011;14031;50.158;8.626;2023-02-13T14:25:39;2.63;;;2.43;;
16173;SDS011;14031;50.158;8.626;2023-02-13T14:28:06;3.40;;;2.85;;
16173;SDS011;14031;50.158;8.626;2023-02-13T14:30:51;3.17;;;2.63;;
16173;SDS011;14031;50.158;8.626;2023-02-13T14:33:32;4.17;;;2.73;;
16173;SDS011;14031;50.158;8.626;2023-02-13T14:36:01;2.72;;;2.53;;
16173;SDS011;14031;50.158;8.626;2023-02-13T14:38:31;3.13;;;2.93;;
16173;SDS011;14031;50.158;8.626;2023-02-13T14:40:58;2.90;;;2.70;;
16173;SDS011;14031;50.158;8.626;2023-02-13T14:43:29;3.17;;;2.40;;
16173;SDS011;14031;50.158;8.626;2023-02-13T14:46:22;4.43;;;2.47;;
16173;SDS011;14031;50.158;8.626;2023-02-13T14:48:59;3.00;;;2.55;;
16173;SDS011;14031;50.158;8.626;2023-02-13T14:51:30;3.00;;;2.80;;
16173;SDS011;14031;50.158;8.626;2023-02-13T14:54:04;3.80;;;2.78;;
16173;SDS011;14031;50.158;8.626;2023-02-13T14:56:45;2.88;;;2.67;;
16173;SDS011;14031;50.158;8.626;2023-02-13T14:59:17;3.40;;;2.90;;
16173;SDS011;14031;50.158;8.626;2023-02-13T15:01:49;2.88;;;2.70;;
16173;SDS011;14031;50.158;8.626;2023-02-13T15:04:21;2.78;;;2.60;;
16173;SDS011;14031;50.158;8.626;2023-02-13T15:06:53;7.38;;;3.10;;
16173;SDS011;14031;50.158;8.626;2023-02-13T15:09:27;3.47;;;3.20;;
16173;SDS011;14031;50.158;8.626;2023-02-13T15:12:01;3.63;;;3.10;;
16173;SDS011;14031;50.158;8.626;2023-02-13T15:14:32;3.67;;;3.35;;
16173;SDS011;14031;50.158;8.626;2023-02-13T15:17:05;4.72;;;3.70;;
16173;SDS011;14031;50.158;8.626;2023-02-13T15:19:42;4.17;;;3.80;;
16173;SDS011;14031;50.158;8.626;2023-02-13T15:22:16;4.20;;;3.77;;
16173;SDS011;14031;50.158;8.626;2023-02-13T15:24:45;4.50;;;4.20;;
16173;SDS011;14031;50.158;8.626;2023-02-13T15:27:16;3.97;;;3.67;;
16173;SDS011;14031;50.158;8.626;2023-02-13T15:29:58;5.07;;;4.03;;